sensor_id;sensor_type;location;lat;lon;timestamp;P1;durP1;ratioP1;P2;durP2;ratioP2
26620;SDS011;14253;44.840;10.444;2024-03-22T00:01:52;103.47;;;54.78;;
26620;SDS011;14253;44.840;10.444;2024-03-22T00:04:18;97.70;;;53.20;;
26620;SDS011;14253;44.840;10.444;2024-03-22T00:06:45;97.57;;;53.50;;
26620;SDS011;14253;44.840;10.444;2024-03-22T00:09:14;108.72;;;57.75;;
26620;SDS011;14253;44.840;10.444;2024-03-22T00:11:40;106.63;;;58.10;;
26620;SDS011;14253;44.840;10.444;2024-03-22T00:14:07;108.72;;;57.25;;
26620;SDS011;14253;44.840;10.444;2024-03-22T00:16:33;112.05;;;59.20;;
26620;SDS011;14253;44.840;10.444;2024-03-22T00:18:59;105.03;;;58.58;;
26620;SDS011;14253;44.840;10.444;2024-03-22T00:21:25;119.30;;;61.22;;
26620;SDS011;14253;44.840;10.444;2024-03-22T00:23:51;117.10;;;60.92;;
26620;SDS011;14253;44.840;10.444;2024-03-22T00:26:17;110.97;;;57.63;;
26620;SDS011;14253;44.840;10.444;2024-03-22T00:28:43;107.93;;;56.40;;
26620;SDS011;14253;44.840;10.444;2024-03-22T00:31:09;99.85;;;56.03;;
26620;SDS011;14253;44.840;10.444;2024-03-22T00:33:35;102.47;;;54.33;;
26620;SDS011;14253;44.840;10.444;2024-03-22T00:36:01;121.70;;;58.22;;
26620;SDS011;14253;44.840;10.444;2024-03-22T00:38:27;106.32;;;57.47;;
26620;SDS011;14253;44.840;10.444;2024-03-22T00:40:53;108.30;;;58.35;;
26620;SDS011;14253;44.840;10.444;2024-03-22T00:43:19;101.47;;;52.83;;
26620;SDS011;14253;44.840;10.444;2024-03-22T00:45:46;101.82;;;54.70;;
26620;SDS011;14253;44.840;10.444;2024-03-22T00:48:12;107.13;;;56.63;;
26620;SDS011;14253;44.840;10.444;2024-03-22T00:50:39;100.03;;;52.92;;
26620;SDS011;14253;44.840;10.444;2024-03-22T00:53:05;98.60;;;54.40;;
26620;SDS011;14253;44.840;10.444;2024-03-22T00:55:33;101.10;;;53.38;;
26620;SDS011;14253;44.840;10.444;2024-03-22T00:57:59;97.47;;;52.85;;
26620;SDS011;14253;44.840;10.444;2024-03-22T01:00:25;93.10;;;51.03;;
26620;SDS011;14253;44.840;10.444;2024-03-22T01:02:51;83.78;;;47.45;;
26620;SDS011;14253;44.840;10.444;2024-03-22T01:05:17;85.03;;;46.47;;
26620;SDS011;14253;44.840;10.444;2024-03-22T01:07:43;75.70;;;41.10;;
26620;SDS011;14253;44.840;10.444;2024-03-22T01:10:12;74.22;;;41.63;;
26620;SDS011;14253;44.840;10.444;2024-03-22T01:12:38;74.05;;;41.45;;
26620;SDS011;14253;44.840;10.444;2024-03-22T01:15:05;65.55;;;39.15;;
26620;SDS011;14253;44.840;10.444;2024-03-22T01:17:32;62.55;;;36.03;;
26620;SDS011;14253;44.840;10.444;2024-03-22T01:19:58;56.88;;;35.63;;
26620;SDS011;14253;44.840;10.444;2024-03-22T01:22:24;56.00;;;34.97;;
26620;SDS011;14253;44.840;10.444;2024-03-22T01:24:50;60.58;;;37.47;;
26620;SDS011;14253;44.840;10.444;2024-03-22T01:27:16;55.80;;;34.42;;
26620;SDS011;14253;44.840;10.444;2024-03-22T01:29:42;54.97;;;35.97;;
26620;SDS011;14253;44.840;10.444;2024-03-22T01:32:08;57.92;;;34.50;;
26620;SDS011;14253;44.840;10.444;2024-03-22T01:34:34;54.72;;;34.50;;
26620;SDS011;14253;44.840;10.444;2024-03-22T01:37:00;53.83;;;32.88;;
26620;SDS011;14253;44.840;10.444;2024-03-22T01:39:26;48.28;;;31.48;;
26620;SDS011;14253;44.840;10.444;2024-03-22T01:41:52;59.30;;;34.42;;
26620;SDS011;14253;44.840;10.444;2024-03-22T01:44:18;52.58;;;33.83;;
26620;SDS011;14253;44.840;10.444;2024-03-22T01:46:44;51.78;;;32.95;;
26620;SDS011;14253;44.840;10.444;2024-03-22T01:49:13;64.47;;;35.85;;
26620;SDS011;14253;44.840;10.444;2024-03-22T01:51:41;55.22;;;34.08;;
26620;SDS011;14253;44.840;10.444;2024-03-22T01:54:10;57.85;;;34.10;;
26620;SDS011;14253;44.840;10.444;2024-03-22T01:56:36;74.50;;;41.78;;
26620;SDS011;14253;44.840;10.444;2024-03-22T01:59:04;68.82;;;40.60;;
26620;SDS011;14253;44.840;10.444;2024-03-22T02:01:31;77.93;;;44.63;;
26620;SDS011;14253;44.840;10.444;2024-03-22T02:03:57;85.53;;;46.58;;
26620;SDS011;14253;44.840;10.444;2024-03-22T02:06:23;84.53;;;47.05;;
26620;SDS011;14253;44.840;10.444;2024-03-22T02:08:49;84.35;;;45.15;;
26620;SDS011;14253;44.840;10.444;2024-03-22T02:11:15;78.30;;;44.67;;
26620;SDS011;14253;44.840;10.444;2024-03-22T02:13:41;95.10;;;49.75;;
26620;SDS011;14253;44.840;10.444;2024-03-22T02:16:08;93.00;;;50.45;;
26620;SDS011;14253;44.840;10.444;2024-03-22T02:18:34;90.60;;;46.92;;
26620;SDS011;14253;44.840;10.444;2024-03-22T02:21:00;96.25;;;49.58;;
26620;SDS011;14253;44.840;10.444;2024-03-22T02:23:37;154.90;;;49.25;;
26620;SDS011;14253;44.840;10.444;2024-03-22T02:26:04;99.35;;;46.78;;
26620;SDS011;14253;44.840;10.444;2024-03-22T02:28:31;87.72;;;42.05;;
26620;SDS011;14253;44.840;10.444;2024-03-22T02:30:57;69.22;;;38.13;;
26620;SDS011;14253;44.840;10.444;2024-03-22T02:33:24;69.25;;;35.88;;
26620;SDS011;14253;44.840;10.444;2024-03-22T02:35:51;107.15;;;37.88;;
26620;SDS011;14253;44.840;10.444;2024-03-22T02:38:17;44.22;;;31.23;;
26620;SDS011;14253;44.840;10.444;2024-03-22T02:40:43;43.03;;;31.40;;
26620;SDS011;14253;44.840;10.444;2024-03-22T02:43:10;44.13;;;30.38;;
26620;SDS011;14253;44.840;10.444;2024-03-22T02:45:36;52.95;;;32.47;;
26620;SDS011;14253;44.840;10.444;2024-03-22T02:48:02;38.28;;;28.85;;
26620;SDS011;14253;44.840;10.444;2024-03-22T02:50:32;53.42;;;28.95;;
26620;SDS011;14253;44.840;10.444;2024-03-22T02:53:02;69.18;;;31.00;;
26620;SDS011;14253;44.840;10.444;2024-03-22T02:55:29;39.67;;;30.00;;
26620;SDS011;14253;44.840;10.444;2024-03-22T02:57:58;36.78;;;28.67;;
26620;SDS011;14253;44.840;10.444;2024-03-22T03:00:25;65.97;;;31.35;;
26620;SDS011;14253;44.840;10.444;2024-03-22T03:02:51;113.57;;;35.15;;
26620;SDS011;14253;44.840;10.444;2024-03-22T03:05:17;68.50;;;36.30;;
26620;SDS011;14253;44.840;10.444;2024-03-22T03:07:42;97.60;;;37.60;;
26620;SDS011;14253;44.840;10.444;2024-03-22T03:10:08;87.63;;;35.20;;
26620;SDS011;14253;44.840;10.444;2024-03-22T03:12:34;119.97;;;33.67;;
26620;SDS011;14253;44.840;10.444;2024-03-22T03:15:00;105.97;;;31.88;;
26620;SDS011;14253;44.840;10.444;2024-03-22T03:17:26;69.82;;;31.90;;
26620;SDS011;14253;44.840;10.444;2024-03-22T03:19:52;52.25;;;29.70;;
26620;SDS011;14253;44.840;10.444;2024-03-22T03:22:17;42.58;;;29.30;;
26620;SDS011;14253;44.840;10.444;2024-03-22T03:24:43;84.75;;;31.67;;
26620;SDS011;14253;44.840;10.444;2024-03-22T03:27:09;50.03;;;31.38;;
26620;SDS011;14253;44.840;10.444;2024-03-22T03:29:36;166.38;;;35.78;;
26620;SDS011;14253;44.840;10.444;2024-03-22T03:32:02;109.93;;;34.35;;
26620;SDS011;14253;44.840;10.444;2024-03-22T03:34:28;60.20;;;34.40;;
26620;SDS011;14253;44.840;10.444;2024-03-22T03:36:54;94.22;;;35.42;;
26620;SDS011;14253;44.840;10.444;2024-03-22T03:39:20;140.63;;;35.17;;
26620;SDS011;14253;44.840;10.444;2024-03-22T03:41:46;97.32;;;36.33;;
26620;SDS011;14253;44.840;10.444;2024-03-22T03:44:12;51.33;;;32.15;;
26620;SDS011;14253;44.840;10.444;2024-03-22T03:46:38;50.88;;;33.83;;
26620;SDS011;14253;44.840;10.444;2024-03-22T03:49:04;77.45;;;33.45;;
26620;SDS011;14253;44.840;10.444;2024-03-22T03:51:29;41.78;;;30.83;;
26620;SDS011;14253;44.840;10.444;2024-03-22T03:53:55;40.17;;;29.10;;
26620;SDS011;14253;44.840;10.444;2024-03-22T03:56:21;45.88;;;29.52;;
26620;SDS011;14253;44.840;10.444;2024-03-22T03:58:47;42.45;;;30.20;;
26620;SDS011;14253;44.840;10.444;2024-03-22T04:01:15;41.03;;;28.45;;
26620;SDS011;14253;44.840;10.444;2024-03-22T04:03:43;48.25;;;32.70;;
26620;SDS011;14253;44.840;10.444;2024-03-22T04:06:09;54.58;;;35.17;;
26620;SDS011;14253;44.840;10.444;2024-03-22T04:08:34;55.97;;;34.10;;
26620;SDS011;14253;44.840;10.444;2024-03-22T04:11:00;59.53;;;36.42;;
26620;SDS011;14253;44.840;10.444;2024-03-22T04:13:28;58.35;;;37.03;;
26620;SDS011;14253;44.840;10.444;2024-03-22T04:15:58;56.03;;;35.75;;
26620;SDS011;14253;44.840;10.444;2024-03-22T04:18:24;52.88;;;35.25;;
26620;SDS011;14253;44.840;10.444;2024-03-22T04:20:53;53.50;;;35.42;;
26620;SDS011;14253;44.840;10.444;2024-03-22T04:23:23;50.00;;;34.45;;
26620;SDS011;14253;44.840;10.444;2024-03-22T04:25:53;48.47;;;33.00;;
26620;SDS011;14253;44.840;10.444;2024-03-22T04:28:20;50.40;;;34.83;;
26620;SDS011;14253;44.840;10.444;2024-03-22T04:33:29;43.28;;;32.67;;
26620;SDS011;14253;44.840;10.444;2024-03-22T04:35:56;40.08;;;30.75;;
26620;SDS011;14253;44.840;10.444;2024-03-22T04:38:23;41.40;;;31.35;;
26620;SDS011;14253;44.840;10.444;2024-03-22T04:40:51;42.05;;;30.65;;
26620;SDS011;14253;44.840;10.444;2024-03-22T04:43:17;43.60;;;31.40;;
26620;SDS011;14253;44.840;10.444;2024-03-22T04:45:44;49.50;;;31.88;;
26620;SDS011;14253;44.840;10.444;2024-03-22T04:48:12;40.40;;;29.63;;
26620;SDS011;14253;44.840;10.444;2024-03-22T04:53:07;39.72;;;27.55;;
26620;SDS011;14253;44.840;10.444;2024-03-22T04:55:33;38.85;;;28.30;;
26620;SDS011;14253;44.840;10.444;2024-03-22T04:58:00;43.47;;;29.38;;
26620;SDS011;14253;44.840;10.444;2024-03-22T05:00:26;47.03;;;30.25;;
26620;SDS011;14253;44.840;10.444;2024-03-22T05:02:53;41.00;;;28.23;;
26620;SDS011;14253;44.840;10.444;2024-03-22T05:05:19;41.88;;;29.13;;
26620;SDS011;14253;44.840;10.444;2024-03-22T05:07:45;37.53;;;27.02;;
26620;SDS011;14253;44.840;10.444;2024-03-22T05:10:11;36.72;;;27.15;;
26620;SDS011;14253;44.840;10.444;2024-03-22T05:12:38;45.42;;;30.83;;
26620;SDS011;14253;44.840;10.444;2024-03-22T05:15:07;46.83;;;31.52;;
26620;SDS011;14253;44.840;10.444;2024-03-22T05:17:33;44.00;;;30.27;;
26620;SDS011;14253;44.840;10.444;2024-03-22T05:19:59;53.55;;;32.55;;
26620;SDS011;14253;44.840;10.444;2024-03-22T05:22:25;52.88;;;32.65;;
26620;SDS011;14253;44.840;10.444;2024-03-22T05:24:51;52.35;;;35.47;;
26620;SDS011;14253;44.840;10.444;2024-03-22T05:27:17;78.93;;;52.72;;
26620;SDS011;14253;44.840;10.444;2024-03-22T05:29:43;62.25;;;38.65;;
26620;SDS011;14253;44.840;10.444;2024-03-22T05:32:10;45.53;;;30.90;;
26620;SDS011;14253;44.840;10.444;2024-03-22T05:34:36;46.50;;;29.45;;
26620;SDS011;14253;44.840;10.444;2024-03-22T05:37:02;54.55;;;32.00;;
26620;SDS011;14253;44.840;10.444;2024-03-22T05:39:28;47.15;;;29.77;;
26620;SDS011;14253;44.840;10.444;2024-03-22T05:41:54;49.67;;;30.10;;
26620;SDS011;14253;44.840;10.444;2024-03-22T05:44:23;49.55;;;30.08;;
26620;SDS011;14253;44.840;10.444;2024-03-22T05:46:49;46.15;;;30.33;;
26620;SDS011;14253;44.840;10.444;2024-03-22T05:49:15;47.83;;;29.08;;
26620;SDS011;14253;44.840;10.444;2024-03-22T05:51:41;46.55;;;29.67;;
26620;SDS011;14253;44.840;10.444;2024-03-22T05:54:07;50.00;;;30.02;;
26620;SDS011;14253;44.840;10.444;2024-03-22T05:56:33;48.25;;;31.55;;
26620;SDS011;14253;44.840;10.444;2024-03-22T05:58:59;53.20;;;31.15;;
26620;SDS011;14253;44.840;10.444;2024-03-22T06:01:25;47.83;;;30.90;;
26620;SDS011;14253;44.840;10.444;2024-03-22T06:03:51;40.40;;;28.23;;
26620;SDS011;14253;44.840;10.444;2024-03-22T06:06:17;41.65;;;27.85;;
26620;SDS011;14253;44.840;10.444;2024-03-22T06:08:43;44.53;;;27.63;;
26620;SDS011;14253;44.840;10.444;2024-03-22T06:11:10;27.67;;;20.92;;
26620;SDS011;14253;44.840;10.444;2024-03-22T06:13:36;21.13;;;17.75;;
26620;SDS011;14253;44.840;10.444;2024-03-22T06:16:03;19.88;;;16.10;;
26620;SDS011;14253;44.840;10.444;2024-03-22T06:18:29;18.00;;;16.10;;
26620;SDS011;14253;44.840;10.444;2024-03-22T06:20:55;19.30;;;16.17;;
26620;SDS011;14253;44.840;10.444;2024-03-22T06:23:21;18.73;;;16.13;;
26620;SDS011;14253;44.840;10.444;2024-03-22T06:25:51;20.73;;;17.17;;
26620;SDS011;14253;44.840;10.444;2024-03-22T06:28:17;24.33;;;19.17;;
26620;SDS011;14253;44.840;10.444;2024-03-22T06:30:43;25.05;;;20.67;;
26620;SDS011;14253;44.840;10.444;2024-03-22T06:33:09;29.50;;;21.73;;
26620;SDS011;14253;44.840;10.444;2024-03-22T06:35:35;30.52;;;23.25;;
26620;SDS011;14253;44.840;10.444;2024-03-22T06:38:01;33.05;;;24.17;;
26620;SDS011;14253;44.840;10.444;2024-03-22T06:40:28;31.60;;;23.17;;
26620;SDS011;14253;44.840;10.444;2024-03-22T06:42:54;25.98;;;20.98;;
26620;SDS011;14253;44.840;10.444;2024-03-22T06:45:20;29.67;;;23.77;;
26620;SDS011;14253;44.840;10.444;2024-03-22T06:47:46;32.90;;;23.60;;
26620;SDS011;14253;44.840;10.444;2024-03-22T06:50:12;32.17;;;24.40;;
26620;SDS011;14253;44.840;10.444;2024-03-22T06:52:38;31.38;;;24.42;;
26620;SDS011;14253;44.840;10.444;2024-03-22T06:55:04;40.60;;;24.77;;
26620;SDS011;14253;44.840;10.444;2024-03-22T06:57:31;32.25;;;25.30;;
26620;SDS011;14253;44.840;10.444;2024-03-22T06:59:59;33.95;;;24.20;;
26620;SDS011;14253;44.840;10.444;2024-03-22T07:02:26;34.38;;;23.98;;
26620;SDS011;14253;44.840;10.444;2024-03-22T07:04:52;31.27;;;22.90;;
26620;SDS011;14253;44.840;10.444;2024-03-22T07:07:18;28.35;;;21.70;;
26620;SDS011;14253;44.840;10.444;2024-03-22T07:09:44;33.22;;;21.95;;
26620;SDS011;14253;44.840;10.444;2024-03-22T07:12:11;26.73;;;21.08;;
26620;SDS011;14253;44.840;10.444;2024-03-22T07:14:37;25.85;;;20.63;;
26620;SDS011;14253;44.840;10.444;2024-03-22T07:17:03;28.75;;;20.33;;
26620;SDS011;14253;44.840;10.444;2024-03-22T07:19:29;31.98;;;22.45;;
26620;SDS011;14253;44.840;10.444;2024-03-22T07:21:55;29.05;;;21.90;;
26620;SDS011;14253;44.840;10.444;2024-03-22T07:24:20;30.23;;;22.52;;
26620;SDS011;14253;44.840;10.444;2024-03-22T07:26:49;30.20;;;24.48;;
26620;SDS011;14253;44.840;10.444;2024-03-22T07:29:15;32.35;;;24.65;;
26620;SDS011;14253;44.840;10.444;2024-03-22T07:31:42;32.53;;;24.30;;
26620;SDS011;14253;44.840;10.444;2024-03-22T07:34:08;29.95;;;23.45;;
26620;SDS011;14253;44.840;10.444;2024-03-22T07:36:37;30.60;;;23.83;;
26620;SDS011;14253;44.840;10.444;2024-03-22T07:39:03;28.55;;;23.38;;
26620;SDS011;14253;44.840;10.444;2024-03-22T07:41:32;36.70;;;24.73;;
26620;SDS011;14253;44.840;10.444;2024-03-22T07:43:58;29.73;;;23.58;;
26620;SDS011;14253;44.840;10.444;2024-03-22T07:46:27;32.47;;;24.55;;
26620;SDS011;14253;44.840;10.444;2024-03-22T07:48:54;32.35;;;25.23;;
26620;SDS011;14253;44.840;10.444;2024-03-22T07:51:20;32.55;;;24.10;;
26620;SDS011;14253;44.840;10.444;2024-03-22T07:53:46;33.58;;;25.88;;
26620;SDS011;14253;44.840;10.444;2024-03-22T07:56:12;43.75;;;27.02;;
26620;SDS011;14253;44.840;10.444;2024-03-22T07:58:38;34.35;;;24.95;;
26620;SDS011;14253;44.840;10.444;2024-03-22T08:01:04;36.55;;;25.73;;
26620;SDS011;14253;44.840;10.444;2024-03-22T08:03:32;30.48;;;23.40;;
26620;SDS011;14253;44.840;10.444;2024-03-22T08:05:58;43.08;;;28.42;;
26620;SDS011;14253;44.840;10.444;2024-03-22T08:08:24;39.63;;;27.67;;
26620;SDS011;14253;44.840;10.444;2024-03-22T08:10:50;38.00;;;28.30;;
26620;SDS011;14253;44.840;10.444;2024-03-22T08:13:16;47.47;;;28.80;;
26620;SDS011;14253;44.840;10.444;2024-03-22T08:15:42;53.35;;;30.38;;
26620;SDS011;14253;44.840;10.444;2024-03-22T08:18:10;47.10;;;29.45;;
26620;SDS011;14253;44.840;10.444;2024-03-22T08:20:36;42.95;;;29.35;;
26620;SDS011;14253;44.840;10.444;2024-03-22T08:23:04;43.35;;;29.08;;
26620;SDS011;14253;44.840;10.444;2024-03-22T08:25:30;56.30;;;30.70;;
26620;SDS011;14253;44.840;10.444;2024-03-22T08:27:59;49.33;;;29.65;;
26620;SDS011;14253;44.840;10.444;2024-03-22T08:30:25;46.03;;;30.23;;
26620;SDS011;14253;44.840;10.444;2024-03-22T08:32:51;50.00;;;33.05;;
26620;SDS011;14253;44.840;10.444;2024-03-22T08:35:17;52.97;;;33.90;;
26620;SDS011;14253;44.840;10.444;2024-03-22T08:37:43;58.67;;;34.47;;
26620;SDS011;14253;44.840;10.444;2024-03-22T08:40:10;57.20;;;36.83;;
26620;SDS011;14253;44.840;10.444;2024-03-22T08:42:36;67.25;;;37.35;;
26620;SDS011;14253;44.840;10.444;2024-03-22T08:45:02;58.03;;;37.78;;
26620;SDS011;14253;44.840;10.444;2024-03-22T08:47:29;68.13;;;41.55;;
26620;SDS011;14253;44.840;10.444;2024-03-22T08:49:56;66.35;;;41.58;;
26620;SDS011;14253;44.840;10.444;2024-03-22T08:52:23;66.22;;;42.17;;
26620;SDS011;14253;44.840;10.444;2024-03-22T08:54:52;65.90;;;43.88;;
26620;SDS011;14253;44.840;10.444;2024-03-22T08:57:19;68.15;;;44.13;;
26620;SDS011;14253;44.840;10.444;2024-03-22T08:59:45;69.35;;;43.33;;
26620;SDS011;14253;44.840;10.444;2024-03-22T09:02:11;66.00;;;44.15;;
26620;SDS011;14253;44.840;10.444;2024-03-22T09:04:38;66.82;;;43.10;;
26620;SDS011;14253;44.840;10.444;2024-03-22T09:07:04;69.47;;;43.90;;
26620;SDS011;14253;44.840;10.444;2024-03-22T09:09:30;73.72;;;45.08;;
26620;SDS011;14253;44.840;10.444;2024-03-22T09:11:56;68.55;;;44.60;;
26620;SDS011;14253;44.840;10.444;2024-03-22T09:14:22;70.75;;;44.08;;
26620;SDS011;14253;44.840;10.444;2024-03-22T09:16:48;65.85;;;44.35;;
26620;SDS011;14253;44.840;10.444;2024-03-22T09:19:14;69.72;;;44.35;;
26620;SDS011;14253;44.840;10.444;2024-03-22T09:21:40;70.93;;;45.05;;
26620;SDS011;14253;44.840;10.444;2024-03-22T09:24:06;74.55;;;46.50;;
26620;SDS011;14253;44.840;10.444;2024-03-22T09:26:32;75.20;;;48.65;;
26620;SDS011;14253;44.840;10.444;2024-03-22T09:28:58;68.22;;;44.72;;
26620;SDS011;14253;44.840;10.444;2024-03-22T09:31:24;74.85;;;48.45;;
26620;SDS011;14253;44.840;10.444;2024-03-22T09:33:50;79.05;;;48.72;;
26620;SDS011;14253;44.840;10.444;2024-03-22T09:36:16;77.07;;;47.90;;
26620;SDS011;14253;44.840;10.444;2024-03-22T09:38:42;69.68;;;45.70;;
26620;SDS011;14253;44.840;10.444;2024-03-22T09:41:08;70.90;;;45.83;;
26620;SDS011;14253;44.840;10.444;2024-03-22T09:43:34;72.22;;;46.63;;
26620;SDS011;14253;44.840;10.444;2024-03-22T09:46:00;69.43;;;44.80;;
26620;SDS011;14253;44.840;10.444;2024-03-22T09:48:27;68.82;;;44.63;;
26620;SDS011;14253;44.840;10.444;2024-03-22T09:50:54;66.95;;;42.53;;
26620;SDS011;14253;44.840;10.444;2024-03-22T09:53:20;73.75;;;44.80;;
26620;SDS011;14253;44.840;10.444;2024-03-22T09:55:48;63.83;;;45.22;;
26620;SDS011;14253;44.840;10.444;2024-03-22T09:58:15;71.70;;;44.08;;
26620;SDS011;14253;44.840;10.444;2024-03-22T10:00:44;63.15;;;42.88;;
26620;SDS011;14253;44.840;10.444;2024-03-22T10:03:10;63.25;;;42.58;;
26620;SDS011;14253;44.840;10.444;2024-03-22T10:05:37;63.97;;;42.92;;
26620;SDS011;14253;44.840;10.444;2024-03-22T10:08:03;68.60;;;45.17;;
26620;SDS011;14253;44.840;10.444;2024-03-22T10:10:32;62.55;;;42.22;;
26620;SDS011;14253;44.840;10.444;2024-03-22T10:13:03;62.25;;;41.28;;
26620;SDS011;14253;44.840;10.444;2024-03-22T10:15:30;57.83;;;39.72;;
26620;SDS011;14253;44.840;10.444;2024-03-22T10:17:59;61.45;;;41.45;;
26620;SDS011;14253;44.840;10.444;2024-03-22T10:20:25;56.75;;;39.20;;
26620;SDS011;14253;44.840;10.444;2024-03-22T10:22:57;60.70;;;40.67;;
26620;SDS011;14253;44.840;10.444;2024-03-22T10:25:27;52.85;;;37.22;;
26620;SDS011;14253;44.840;10.444;2024-03-22T10:27:54;55.92;;;39.28;;
26620;SDS011;14253;44.840;10.444;2024-03-22T10:30:20;53.35;;;38.25;;
26620;SDS011;14253;44.840;10.444;2024-03-22T10:32:49;55.20;;;38.38;;
26620;SDS011;14253;44.840;10.444;2024-03-22T10:35:15;54.33;;;38.60;;
26620;SDS011;14253;44.840;10.444;2024-03-22T10:37:42;52.22;;;36.55;;
26620;SDS011;14253;44.840;10.444;2024-03-22T10:40:09;55.22;;;36.53;;
26620;SDS011;14253;44.840;10.444;2024-03-22T10:42:38;48.70;;;34.58;;
26620;SDS011;14253;44.840;10.444;2024-03-22T10:45:07;55.55;;;37.10;;
26620;SDS011;14253;44.840;10.444;2024-03-22T10:47:35;43.92;;;31.10;;
26620;SDS011;14253;44.840;10.444;2024-03-22T10:50:09;54.45;;;36.60;;
26620;SDS011;14253;44.840;10.444;2024-03-22T10:52:40;47.80;;;33.67;;
26620;SDS011;14253;44.840;10.444;2024-03-22T10:55:24;50.92;;;36.13;;
26620;SDS011;14253;44.840;10.444;2024-03-22T10:57:59;56.85;;;36.97;;
26620;SDS011;14253;44.840;10.444;2024-03-22T11:00:29;55.00;;;38.45;;
26620;SDS011;14253;44.840;10.444;2024-03-22T11:02:56;54.83;;;39.13;;
26620;SDS011;14253;44.840;10.444;2024-03-22T11:05:22;52.38;;;37.33;;
26620;SDS011;14253;44.840;10.444;2024-03-22T11:07:58;52.38;;;36.78;;
26620;SDS011;14253;44.840;10.444;2024-03-22T11:10:33;53.17;;;39.38;;
26620;SDS011;14253;44.840;10.444;2024-03-22T11:13:02;53.70;;;37.65;;
26620;SDS011;14253;44.840;10.444;2024-03-22T11:15:29;54.50;;;36.35;;
26620;SDS011;14253;44.840;10.444;2024-03-22T11:17:56;57.83;;;37.80;;
26620;SDS011;14253;44.840;10.444;2024-03-22T11:20:22;53.50;;;36.75;;
26620;SDS011;14253;44.840;10.444;2024-03-22T11:22:51;51.63;;;36.83;;
26620;SDS011;14253;44.840;10.444;2024-03-22T11:25:18;53.22;;;36.80;;
26620;SDS011;14253;44.840;10.444;2024-03-22T11:27:45;53.05;;;36.08;;
26620;SDS011;14253;44.840;10.444;2024-03-22T11:30:13;48.88;;;34.65;;
26620;SDS011;14253;44.840;10.444;2024-03-22T11:32:41;49.65;;;34.63;;
26620;SDS011;14253;44.840;10.444;2024-03-22T11:35:10;54.45;;;35.05;;
26620;SDS011;14253;44.840;10.444;2024-03-22T11:37:41;47.42;;;33.58;;
26620;SDS011;14253;44.840;10.444;2024-03-22T11:40:10;48.03;;;31.52;;
26620;SDS011;14253;44.840;10.444;2024-03-22T11:42:40;52.17;;;30.50;;
26620;SDS011;14253;44.840;10.444;2024-03-22T11:45:11;38.55;;;27.35;;
26620;SDS011;14253;44.840;10.444;2024-03-22T11:50:05;44.47;;;30.25;;
26620;SDS011;14253;44.840;10.444;2024-03-22T11:52:31;36.40;;;28.75;;
26620;SDS011;14253;44.840;10.444;2024-03-22T11:54:57;42.53;;;28.88;;
26620;SDS011;14253;44.840;10.444;2024-03-22T11:57:24;45.90;;;33.13;;
26620;SDS011;14253;44.840;10.444;2024-03-22T11:59:51;41.25;;;30.27;;
26620;SDS011;14253;44.840;10.444;2024-03-22T12:02:23;34.70;;;26.23;;
26620;SDS011;14253;44.840;10.444;2024-03-22T12:04:49;35.35;;;25.05;;
26620;SDS011;14253;44.840;10.444;2024-03-22T12:07:16;37.40;;;26.48;;
26620;SDS011;14253;44.840;10.444;2024-03-22T12:09:43;33.15;;;24.92;;
26620;SDS011;14253;44.840;10.444;2024-03-22T12:12:10;30.70;;;23.30;;
26620;SDS011;14253;44.840;10.444;2024-03-22T12:14:38;31.52;;;24.20;;
26620;SDS011;14253;44.840;10.444;2024-03-22T12:17:07;27.10;;;20.33;;
26620;SDS011;14253;44.840;10.444;2024-03-22T12:19:36;25.17;;;17.38;;
26620;SDS011;14253;44.840;10.444;2024-03-22T12:22:02;20.75;;;14.80;;
26620;SDS011;14253;44.840;10.444;2024-03-22T12:24:28;22.50;;;15.32;;
26620;SDS011;14253;44.840;10.444;2024-03-22T12:26:54;24.58;;;15.88;;
26620;SDS011;14253;44.840;10.444;2024-03-22T12:29:22;24.60;;;17.77;;
26620;SDS011;14253;44.840;10.444;2024-03-22T12:31:49;20.98;;;14.25;;
26620;SDS011;14253;44.840;10.444;2024-03-22T12:34:15;19.13;;;14.00;;
26620;SDS011;14253;44.840;10.444;2024-03-22T12:36:42;23.17;;;15.52;;
26620;SDS011;14253;44.840;10.444;2024-03-22T12:39:08;21.88;;;15.20;;
26620;SDS011;14253;44.840;10.444;2024-03-22T12:41:34;20.63;;;15.50;;
26620;SDS011;14253;44.840;10.444;2024-03-22T12:44:01;25.15;;;17.70;;
26620;SDS011;14253;44.840;10.444;2024-03-22T12:46:27;26.13;;;17.50;;
26620;SDS011;14253;44.840;10.444;2024-03-22T12:48:54;22.67;;;16.92;;
26620;SDS011;14253;44.840;10.444;2024-03-22T12:51:20;24.08;;;16.67;;
26620;SDS011;14253;44.840;10.444;2024-03-22T12:53:46;23.45;;;15.93;;
26620;SDS011;14253;44.840;10.444;2024-03-22T12:56:12;19.23;;;14.07;;
26620;SDS011;14253;44.840;10.444;2024-03-22T12:58:38;22.10;;;14.35;;
26620;SDS011;14253;44.840;10.444;2024-03-22T13:01:04;24.10;;;15.40;;
26620;SDS011;14253;44.840;10.444;2024-03-22T13:03:31;18.20;;;13.27;;
26620;SDS011;14253;44.840;10.444;2024-03-22T13:05:58;18.70;;;11.30;;
26620;SDS011;14253;44.840;10.444;2024-03-22T13:08:24;18.58;;;11.88;;
26620;SDS011;14253;44.840;10.444;2024-03-22T13:10:50;15.75;;;10.30;;
26620;SDS011;14253;44.840;10.444;2024-03-22T13:13:17;16.60;;;10.70;;
26620;SDS011;14253;44.840;10.444;2024-03-22T13:15:43;21.45;;;12.48;;
26620;SDS011;14253;44.840;10.444;2024-03-22T13:18:09;20.20;;;11.60;;
26620;SDS011;14253;44.840;10.444;2024-03-22T13:20:35;15.70;;;11.23;;
26620;SDS011;14253;44.840;10.444;2024-03-22T13:23:01;17.85;;;11.15;;
26620;SDS011;14253;44.840;10.444;2024-03-22T13:25:28;16.63;;;11.38;;
26620;SDS011;14253;44.840;10.444;2024-03-22T13:27:54;20.80;;;13.70;;
26620;SDS011;14253;44.840;10.444;2024-03-22T13:30:20;15.15;;;10.07;;
26620;SDS011;14253;44.840;10.444;2024-03-22T13:32:46;13.13;;;8.98;;
26620;SDS011;14253;44.840;10.444;2024-03-22T13:35:12;11.90;;;8.30;;
26620;SDS011;14253;44.840;10.444;2024-03-22T13:37:40;15.50;;;9.57;;
26620;SDS011;14253;44.840;10.444;2024-03-22T13:40:06;15.65;;;7.97;;
26620;SDS011;14253;44.840;10.444;2024-03-22T13:42:33;13.05;;;9.02;;
26620;SDS011;14253;44.840;10.444;2024-03-22T13:44:59;13.32;;;10.00;;
26620;SDS011;14253;44.840;10.444;2024-03-22T13:47:25;13.10;;;9.25;;
26620;SDS011;14253;44.840;10.444;2024-03-22T13:49:53;14.68;;;9.32;;
26620;SDS011;14253;44.840;10.444;2024-03-22T13:52:19;14.45;;;10.05;;
26620;SDS011;14253;44.840;10.444;2024-03-22T13:54:48;11.55;;;8.98;;
26620;SDS011;14253;44.840;10.444;2024-03-22T13:57:15;13.80;;;9.30;;
26620;SDS011;14253;44.840;10.444;2024-03-22T13:59:41;14.13;;;9.10;;
26620;SDS011;14253;44.840;10.444;2024-03-22T14:02:07;15.98;;;9.75;;
26620;SDS011;14253;44.840;10.444;2024-03-22T14:04:36;16.77;;;12.18;;
26620;SDS011;14253;44.840;10.444;2024-03-22T14:07:02;14.85;;;11.20;;
26620;SDS011;14253;44.840;10.444;2024-03-22T14:09:32;13.68;;;9.95;;
26620;SDS011;14253;44.840;10.444;2024-03-22T14:11:59;13.68;;;10.55;;
26620;SDS011;14253;44.840;10.444;2024-03-22T14:14:26;14.38;;;9.45;;